Terminal Aerodrome Forecast
Issued by NWS

Home | Current Version | Previous Version | Text Only | Print | Product List | Glossary On
Versions: 1 2 3 4 5 6 7 8 9 10 11 12 13 14 15 16 17 18 19 20 21 22 23 24 25 26 27 28 29 30 31
000
FTUS45 KLKN 302300
TAFELY
TAF
KELY 302320Z 3100/3124 01010KT P6SM VCTS BKN090CB
      TEMPO 3100/3102 VRB15G35KT -TSRA BKN080CB
     FM310400 VRB06KT P6SM BKN090
     FM310700 17007KT P6SM SCT120
     FM312000 04007KT P6SM VCTS BKN100CB=

USA.gov is the U.S. government's official web portal to all federal, state and local government web resources and services.